createdAt,value
2022-11-13T00:01:18.471Z,5.57
2022-11-13T00:03:45.667Z,5.62
2022-11-13T00:06:15.125Z,5.68
2022-11-13T00:08:42.440Z,5.57
2022-11-13T00:11:14.271Z,5.53
2022-11-13T00:13:41.425Z,5.55
2022-11-13T00:16:14.111Z,5.59
2022-11-13T00:18:41.232Z,5.56
2022-11-13T00:21:26.665Z,5.54
2022-11-13T00:23:57.015Z,5.35
2022-11-13T00:26:26.869Z,5.29
2022-11-13T00:28:59.252Z,5.50
2022-11-13T00:31:28.208Z,5.50
2022-11-13T00:34:09.525Z,5.58
2022-11-13T00:36:42.195Z,5.07
2022-11-13T00:39:09.657Z,4.80
2022-11-13T00:41:36.578Z,4.67
2022-11-13T00:44:03.415Z,4.61
2022-11-13T00:46:30.423Z,4.59
2022-11-13T00:48:57.366Z,4.47
2022-11-13T00:51:24.219Z,4.67
2022-11-13T00:53:50.927Z,4.85
2022-11-13T00:56:17.648Z,4.78
2022-11-13T00:58:44.934Z,5.00
2022-11-13T01:01:14.749Z,5.19
2022-11-13T01:03:41.680Z,5.21
2022-11-13T01:06:17.445Z,5.26
2022-11-13T01:08:44.933Z,5.25
2022-11-13T01:11:15.398Z,5.18
2022-11-13T01:13:44.823Z,5.12
2022-11-13T01:16:13.644Z,5.01
2022-11-13T01:18:41.091Z,4.90
2022-11-13T01:21:13.424Z,4.86
2022-11-13T01:23:40.581Z,4.90
2022-11-13T01:26:23.680Z,4.91
2022-11-13T01:28:51.481Z,4.71
2022-11-13T01:31:22.150Z,4.63
2022-11-13T01:33:49.450Z,4.89
2022-11-13T01:36:25.773Z,4.95
2022-11-13T01:38:53.473Z,5.08
2022-11-13T01:41:27.452Z,5.22
2022-11-13T01:43:55.575Z,5.25
2022-11-13T01:46:31.344Z,5.17
2022-11-13T01:49:25.358Z,4.98
2022-11-13T01:52:02.135Z,5.01
2022-11-13T01:54:43.979Z,4.96
2022-11-13T01:57:12.221Z,5.10
2022-11-13T01:59:41.971Z,5.16
2022-11-13T02:02:08.832Z,5.17
2022-11-13T02:04:36.360Z,5.20
2022-11-13T02:07:10.784Z,5.18
2022-11-13T02:09:41.076Z,5.12
2022-11-13T02:12:12.533Z,4.98
2022-11-13T02:14:46.223Z,4.90
2022-11-13T02:17:20.799Z,4.97
2022-11-13T02:19:52.032Z,5.07
2022-11-13T02:22:34.339Z,5.12
2022-11-13T02:25:03.008Z,5.11
2022-11-13T02:27:32.231Z,5.13
2022-11-13T02:29:59.221Z,5.05
2022-11-13T02:32:26.000Z,5.09
2022-11-13T02:34:53.375Z,5.12
2022-11-13T02:37:20.318Z,5.11
2022-11-13T02:39:46.985Z,5.00
2022-11-13T02:42:13.705Z,4.88
2022-11-13T02:44:41.534Z,4.58
2022-11-13T02:47:08.294Z,4.13
2022-11-13T02:49:35.081Z,3.92
2022-11-13T02:52:01.862Z,3.81
2022-11-13T02:54:31.588Z,3.35
2022-11-13T02:56:58.373Z,3.45
2022-11-13T02:59:28.434Z,3.28
2022-11-13T03:01:55.284Z,3.40
2022-11-13T03:04:22.231Z,3.38
2022-11-13T03:06:49.858Z,3.17
2022-11-13T03:09:18.431Z,3.34
2022-11-13T03:11:45.195Z,3.42
2022-11-13T03:14:12.074Z,3.37
2022-11-13T03:16:38.909Z,3.38
2022-11-13T03:19:05.765Z,3.55
2022-11-13T03:21:32.899Z,3.67
2022-11-13T03:23:59.735Z,3.91
2022-11-13T03:26:26.456Z,4.00
2022-11-13T03:28:53.432Z,3.91
2022-11-13T03:31:20.897Z,3.91
2022-11-13T03:33:48.623Z,3.79
2022-11-13T03:36:15.785Z,3.65
2022-11-13T03:38:42.507Z,3.54
2022-11-13T03:41:10.452Z,3.64
2022-11-13T03:43:37.314Z,3.85
2022-11-13T03:46:04.134Z,3.91
2022-11-13T03:48:31.053Z,3.65
2022-11-13T03:50:58.196Z,3.72
2022-11-13T03:53:24.912Z,3.88
2022-11-13T03:55:52.187Z,3.51
2022-11-13T03:58:19.466Z,3.50
2022-11-13T04:00:48.255Z,3.44
2022-11-13T04:03:15.028Z,3.30
2022-11-13T04:05:43.358Z,3.31
2022-11-13T04:08:10.314Z,3.25
2022-11-13T04:10:37.127Z,3.17
2022-11-13T04:13:04.133Z,3.32
2022-11-13T04:15:31.544Z,3.48
2022-11-13T04:17:58.255Z,3.67
2022-11-13T04:20:25.277Z,3.83
2022-11-13T04:22:52.607Z,3.92
2022-11-13T04:25:20.131Z,3.86
2022-11-13T04:27:47.778Z,3.77
2022-11-13T04:30:14.538Z,3.57
2022-11-13T04:32:41.960Z,3.44
2022-11-13T04:35:09.484Z,3.37
2022-11-13T04:37:37.242Z,3.40
2022-11-13T04:40:05.186Z,3.43
2022-11-13T04:42:32.046Z,3.55
2022-11-13T04:44:58.759Z,3.81
2022-11-13T04:47:27.135Z,4.09
2022-11-13T04:49:54.453Z,4.34
2022-11-13T04:52:21.217Z,4.44
2022-11-13T04:54:48.012Z,4.44
2022-11-13T04:57:14.950Z,4.63
2022-11-13T04:59:41.696Z,4.82
2022-11-13T05:02:08.446Z,4.94
2022-11-13T05:04:35.257Z,5.09
2022-11-13T05:07:02.022Z,5.16
2022-11-13T05:09:28.832Z,5.10
2022-11-13T05:11:55.607Z,5.14
2022-11-13T05:14:22.981Z,5.24
2022-11-13T05:16:49.735Z,5.37
2022-11-13T05:19:16.891Z,5.61
2022-11-13T05:21:43.861Z,5.81
2022-11-13T05:24:11.892Z,6.07
2022-11-13T05:26:40.436Z,6.23
2022-11-13T05:29:07.257Z,6.33
2022-11-13T05:31:34.010Z,6.47
2022-11-13T05:34:05.961Z,6.55
2022-11-13T05:36:33.372Z,6.66
2022-11-13T05:39:00.109Z,6.75
2022-11-13T05:41:27.338Z,6.82
2022-11-13T05:43:59.183Z,6.93
2022-11-13T05:46:29.078Z,6.94
2022-11-13T05:48:58.423Z,6.85
2022-11-13T05:51:29.306Z,6.76
2022-11-13T05:53:56.619Z,6.73
2022-11-13T05:56:29.105Z,6.70
2022-11-13T05:58:56.956Z,6.78
2022-11-13T06:01:24.949Z,6.67
2022-11-13T06:03:52.296Z,6.54
2022-11-13T06:06:21.568Z,6.50
2022-11-13T06:08:49.302Z,6.37
2022-11-13T06:11:18.793Z,6.35
2022-11-13T06:13:47.485Z,6.47
2022-11-13T06:16:16.902Z,6.46
2022-11-13T06:18:46.009Z,6.54
2022-11-13T06:21:21.038Z,6.38
2022-11-13T06:23:48.300Z,6.49
2022-11-13T06:26:21.029Z,6.81
2022-11-13T06:28:51.015Z,6.93
2022-11-13T06:31:24.123Z,6.90
2022-11-13T06:33:51.014Z,6.95
2022-11-13T06:36:31.921Z,6.90
2022-11-13T06:38:59.361Z,6.94
2022-11-13T06:41:31.169Z,6.58
2022-11-13T06:44:02.670Z,6.75
2022-11-13T06:46:30.489Z,6.73
2022-11-13T06:48:57.947Z,6.77
2022-11-13T06:51:30.314Z,6.76
2022-11-13T06:53:57.286Z,6.89
2022-11-13T06:56:24.237Z,6.98
2022-11-13T06:58:51.122Z,7.07
2022-11-13T07:01:20.230Z,7.07
2022-11-13T07:03:47.165Z,7.24
2022-11-13T07:06:17.720Z,7.50
2022-11-13T07:08:45.392Z,7.59
2022-11-13T07:11:14.790Z,7.84
2022-11-13T07:13:44.512Z,7.79
2022-11-13T07:16:17.405Z,7.87
2022-11-13T07:18:52.630Z,7.91
2022-11-13T07:21:19.916Z,8.10
2022-11-13T07:23:48.889Z,8.13
2022-11-13T07:26:16.026Z,8.06
2022-11-13T07:28:43.528Z,8.30
2022-11-13T07:31:13.157Z,8.47
2022-11-13T07:33:39.976Z,8.23
2022-11-13T07:36:07.810Z,8.37
2022-11-13T07:38:34.875Z,8.56
2022-11-13T07:41:02.135Z,8.65
2022-11-13T07:43:29.194Z,8.80
2022-11-13T07:45:58.709Z,8.90
2022-11-13T07:48:26.224Z,9.12
2022-11-13T07:50:53.917Z,9.28
2022-11-13T07:53:22.250Z,9.38
2022-11-13T07:55:48.965Z,9.34
2022-11-13T07:58:17.060Z,9.57
2022-11-13T08:00:44.549Z,9.42
2022-11-13T08:03:15.816Z,9.68
2022-11-13T08:05:47.047Z,9.82
2022-11-13T08:08:17.548Z,9.88
2022-11-13T08:10:44.597Z,9.79
2022-11-13T08:13:14.393Z,9.81
2022-11-13T08:15:43.824Z,9.98
2022-11-13T08:18:11.110Z,10.23
2022-11-13T08:20:37.856Z,10.53
2022-11-13T08:23:05.497Z,10.43
2022-11-13T08:25:33.510Z,10.71
2022-11-13T08:28:00.685Z,10.48
2022-11-13T08:30:28.851Z,10.42
2022-11-13T08:32:56.032Z,10.72
2022-11-13T08:35:28.109Z,10.94
2022-11-13T08:38:06.497Z,11.21
2022-11-13T08:40:34.007Z,11.43
2022-11-13T08:43:02.224Z,11.81
2022-11-13T08:45:30.216Z,12.10
2022-11-13T08:48:04.161Z,12.52
2022-11-13T08:50:35.609Z,12.61
2022-11-13T08:53:02.469Z,12.55
2022-11-13T08:55:29.757Z,12.29
2022-11-13T08:57:59.801Z,12.39
2022-11-13T09:00:27.492Z,12.63
2022-11-13T09:02:58.596Z,12.95
2022-11-13T09:05:26.276Z,13.31
2022-11-13T09:07:59.963Z,13.50
2022-11-13T09:10:27.988Z,13.14
2022-11-13T09:13:03.125Z,13.24
2022-11-13T09:15:33.950Z,13.44
2022-11-13T09:18:02.371Z,13.30
2022-11-13T09:20:33.495Z,13.05
2022-11-13T09:23:02.501Z,12.84
2022-11-13T09:25:35.955Z,12.77
2022-11-13T09:28:05.615Z,13.18
2022-11-13T09:30:32.512Z,13.11
2022-11-13T09:33:00.668Z,12.81
2022-11-13T09:35:28.639Z,12.83
2022-11-13T09:37:55.384Z,13.01
2022-11-13T09:40:32.085Z,13.19
2022-11-13T09:43:00.908Z,13.55
2022-11-13T09:45:29.488Z,13.86
2022-11-13T09:48:03.008Z,14.00
2022-11-13T09:50:34.466Z,14.38
2022-11-13T09:53:02.301Z,14.84
2022-11-13T09:55:41.272Z,14.45
2022-11-13T09:58:21.478Z,14.37
2022-11-13T10:00:48.771Z,14.03
2022-11-13T10:03:39.474Z,14.23
2022-11-13T10:06:24.176Z,14.58
2022-11-13T10:09:12.464Z,14.24
2022-11-13T10:11:58.696Z,14.34
2022-11-13T10:14:43.065Z,14.39
2022-11-13T10:17:21.770Z,14.42
2022-11-13T10:19:55.811Z,14.52
2022-11-13T10:22:34.130Z,14.74
2022-11-13T10:25:21.040Z,15.01
2022-11-13T10:27:57.587Z,15.36
2022-11-13T10:30:24.642Z,14.92
2022-11-13T10:32:52.156Z,14.30
2022-11-13T10:35:44.289Z,14.67
2022-11-13T10:38:30.857Z,14.61
2022-11-13T10:41:12.670Z,15.01
2022-11-13T10:43:56.447Z,15.09
2022-11-13T10:46:26.775Z,15.15
2022-11-13T10:48:53.680Z,15.07
2022-11-13T10:51:27.241Z,14.88
2022-11-13T10:53:55.125Z,15.15
2022-11-13T10:56:30.218Z,15.19
2022-11-13T10:59:13.346Z,15.15
2022-11-13T11:01:41.617Z,15.65
2022-11-13T11:04:14.577Z,15.65
2022-11-13T11:07:13.152Z,15.54
2022-11-13T11:09:31.882Z,15.65
2022-11-13T11:12:01.855Z,15.80
2022-11-13T11:14:41.582Z,15.78
2022-11-13T11:17:12.176Z,16.28
2022-11-13T11:19:41.142Z,16.16
2022-11-13T11:22:22.520Z,15.45
2022-11-13T11:25:16.005Z,15.67
2022-11-13T11:27:54.767Z,15.50
2022-11-13T11:30:26.315Z,15.55
2022-11-13T11:33:17.217Z,15.01
2022-11-13T11:35:56.933Z,15.22
2022-11-13T11:38:53.169Z,15.16
2022-11-13T11:41:26.254Z,15.37
2022-11-13T11:44:31.600Z,15.18
2022-11-13T11:46:58.384Z,14.91
2022-11-13T11:49:26.628Z,14.72
2022-11-13T11:52:11.819Z,14.85
2022-11-13T11:54:43.024Z,14.84
2022-11-13T11:57:39.603Z,14.70
2022-11-13T12:00:12.650Z,14.91
2022-11-13T12:03:13.737Z,15.29
2022-11-13T12:05:50.467Z,15.44
2022-11-13T12:08:36.225Z,15.14
2022-11-13T12:11:25.043Z,15.37
2022-11-13T12:14:10.033Z,15.36
2022-11-13T12:16:48.372Z,15.10
2022-11-13T12:19:18.259Z,14.98
2022-11-13T12:21:44.877Z,14.64
2022-11-13T12:24:36.156Z,14.73
2022-11-13T12:27:38.756Z,14.64
2022-11-13T12:30:18.940Z,14.89
2022-11-13T12:32:54.794Z,15.16
2022-11-13T12:35:25.198Z,15.38
2022-11-13T12:38:16.700Z,15.54
2022-11-13T12:40:55.676Z,15.65
2022-11-13T12:43:55.015Z,15.62
2022-11-13T12:46:22.211Z,15.69
2022-11-13T12:48:48.957Z,15.15
2022-11-13T12:51:20.317Z,14.81
2022-11-13T12:53:52.006Z,14.53
2022-11-13T12:56:24.670Z,14.58
2022-11-13T12:59:32.770Z,14.86
2022-11-13T13:02:06.811Z,15.01
2022-11-13T13:04:55.239Z,15.12
2022-11-13T13:07:42.052Z,14.91
2022-11-13T13:10:20.977Z,14.60
2022-11-13T13:13:27.840Z,14.75
2022-11-13T13:16:00.675Z,14.83
2022-11-13T13:18:32.102Z,14.76
2022-11-13T13:21:14.895Z,14.71
2022-11-13T13:23:48.323Z,14.88
2022-11-13T13:26:21.888Z,14.79
2022-11-13T13:28:56.109Z,14.48
2022-11-13T13:31:46.176Z,14.47
2022-11-13T13:34:32.354Z,14.37
2022-11-13T13:37:16.644Z,14.56
2022-11-13T13:40:03.715Z,14.55
2022-11-13T13:42:49.157Z,14.57
2022-11-13T13:45:35.836Z,14.35
2022-11-13T13:48:08.571Z,14.26
2022-11-13T13:50:51.063Z,14.28
2022-11-13T13:53:32.212Z,14.19
2022-11-13T13:55:59.800Z,14.10
2022-11-13T13:58:37.485Z,14.02
2022-11-13T14:01:18.879Z,13.99
2022-11-13T14:03:46.642Z,13.85
2022-11-13T14:06:24.790Z,13.83
2022-11-13T14:08:51.649Z,13.82
2022-11-13T14:11:20.423Z,13.78
2022-11-13T14:13:47.397Z,13.82
2022-11-13T14:16:14.347Z,13.69
2022-11-13T14:18:41.229Z,13.60
2022-11-13T14:21:22.223Z,13.58
2022-11-13T14:23:51.982Z,13.51
2022-11-13T14:26:20.245Z,13.45
2022-11-13T14:28:53.688Z,13.39
2022-11-13T14:31:27.477Z,13.33
2022-11-13T14:33:54.634Z,13.26
2022-11-13T14:36:31.537Z,13.27
2022-11-13T14:38:59.613Z,13.21
2022-11-13T14:41:37.866Z,13.14
2022-11-13T14:44:05.007Z,13.10
2022-11-13T14:46:36.766Z,13.07
2022-11-13T14:49:03.984Z,13.03
2022-11-13T14:51:33.109Z,12.99
2022-11-13T14:54:08.755Z,12.94
2022-11-13T14:56:42.288Z,12.88
2022-11-13T14:59:12.395Z,12.83
2022-11-13T15:01:41.495Z,12.74
2022-11-13T15:04:08.344Z,12.75
2022-11-13T15:06:40.428Z,12.70
2022-11-13T15:09:12.821Z,12.66
2022-11-13T15:11:39.679Z,12.63
2022-11-13T15:14:14.603Z,12.54
2022-11-13T15:16:42.314Z,12.47
2022-11-13T15:19:32.347Z,12.46
2022-11-13T15:22:26.118Z,12.44
2022-11-13T15:24:46.406Z,12.43
2022-11-13T15:27:17.369Z,12.38
2022-11-13T15:29:51.801Z,12.39
2022-11-13T15:32:19.045Z,12.38
2022-11-13T15:34:45.821Z,12.37
2022-11-13T15:37:15.399Z,12.39
2022-11-13T15:39:42.498Z,12.35
2022-11-13T15:42:14.352Z,12.34
2022-11-13T15:44:44.564Z,12.17
2022-11-13T15:47:29.433Z,11.93
2022-11-13T15:50:13.070Z,11.70
2022-11-13T15:52:43.704Z,11.57
2022-11-13T15:55:17.862Z,11.49
2022-11-13T15:57:45.725Z,11.30
2022-11-13T16:00:21.048Z,11.13
2022-11-13T16:02:47.826Z,11.04
2022-11-13T16:05:14.644Z,10.91
2022-11-13T16:07:42.489Z,10.82
2022-11-13T16:10:10.867Z,10.86
2022-11-13T16:12:37.672Z,10.76
2022-11-13T16:15:04.917Z,10.45
2022-11-13T16:17:39.150Z,10.32
2022-11-13T16:20:06.589Z,10.09
2022-11-13T16:22:33.322Z,10.03
2022-11-13T16:25:00.010Z,9.91
2022-11-13T16:27:33.855Z,9.90
2022-11-13T16:30:05.564Z,9.99
2022-11-13T16:32:33.677Z,10.05
2022-11-13T16:35:00.452Z,9.99
2022-11-13T16:37:27.252Z,9.93
2022-11-13T16:39:54.197Z,9.88
2022-11-13T16:42:20.929Z,9.84
2022-11-13T16:44:47.607Z,9.71
2022-11-13T16:47:27.922Z,9.70
2022-11-13T16:49:54.785Z,9.68
2022-11-13T16:52:21.535Z,9.64
2022-11-13T16:54:49.799Z,9.59
2022-11-13T16:57:16.533Z,9.53
2022-11-13T16:59:43.213Z,9.57
2022-11-13T17:02:18.090Z,9.50
2022-11-13T17:04:45.067Z,9.48
2022-11-13T17:07:13.709Z,9.36
2022-11-13T17:09:45.193Z,9.54
2022-11-13T17:12:12.847Z,9.49
2022-11-13T17:14:39.615Z,9.56
2022-11-13T17:17:11.897Z,9.49
2022-11-13T17:19:38.547Z,9.45
2022-11-13T17:22:05.253Z,9.43
2022-11-13T17:24:32.305Z,9.37
2022-11-13T17:26:59.077Z,9.47
2022-11-13T17:29:25.834Z,9.44
2022-11-13T17:31:54.369Z,9.36
2022-11-13T17:34:21.144Z,9.24
2022-11-13T17:36:47.901Z,9.20
2022-11-13T17:39:14.903Z,9.28
2022-11-13T17:41:41.617Z,9.34
2022-11-13T17:44:11.916Z,9.35
2022-11-13T17:46:38.856Z,9.25
2022-11-13T17:49:05.727Z,9.10
2022-11-13T17:51:32.596Z,9.00
2022-11-13T17:53:59.621Z,8.95
2022-11-13T17:56:26.381Z,8.88
2022-11-13T17:58:53.152Z,8.91
2022-11-13T18:01:21.880Z,8.90
2022-11-13T18:03:54.112Z,8.86
2022-11-13T18:06:22.684Z,8.81
2022-11-13T18:08:49.996Z,8.80
2022-11-13T18:11:18.196Z,8.75
2022-11-13T18:13:46.590Z,8.76
2022-11-13T18:16:25.487Z,8.72
2022-11-13T18:18:55.003Z,8.82
2022-11-13T18:21:27.808Z,8.77
2022-11-13T18:24:16.061Z,8.78
2022-11-13T18:26:43.205Z,8.75
2022-11-13T18:29:10.524Z,8.59
2022-11-13T18:31:38.130Z,8.44
2022-11-13T18:34:06.632Z,8.35
2022-11-13T18:36:33.657Z,8.31
2022-11-13T18:39:01.158Z,8.29
2022-11-13T18:41:27.933Z,8.41
2022-11-13T18:43:54.717Z,8.33
2022-11-13T18:46:22.945Z,8.32
2022-11-13T18:48:49.918Z,8.35
2022-11-13T18:51:22.081Z,8.41
2022-11-13T18:53:50.636Z,8.54
2022-11-13T18:56:20.606Z,8.52
2022-11-13T18:58:49.425Z,8.38
2022-11-13T19:01:25.271Z,8.26
2022-11-13T19:04:22.142Z,8.28
2022-11-13T19:06:40.785Z,8.20
2022-11-13T19:09:12.127Z,8.20
2022-11-13T19:11:39.543Z,8.18
2022-11-13T19:14:07.178Z,8.14
2022-11-13T19:16:36.694Z,8.14
2022-11-13T19:19:24.020Z,8.11
2022-11-13T19:21:51.577Z,8.01
2022-11-13T19:24:18.332Z,7.84
2022-11-13T19:26:45.857Z,7.83
2022-11-13T19:29:13.277Z,7.87
2022-11-13T19:31:40.454Z,7.92
2022-11-13T19:34:10.150Z,7.79
2022-11-13T19:36:37.297Z,7.76
2022-11-13T19:39:07.632Z,7.71
2022-11-13T19:41:34.444Z,7.58
2022-11-13T19:44:01.204Z,7.66
2022-11-13T19:46:32.577Z,7.83
2022-11-13T19:49:01.335Z,7.89
2022-11-13T19:51:28.383Z,8.06
2022-11-13T19:53:57.657Z,8.20
2022-11-13T19:56:26.097Z,8.32
2022-11-13T19:58:53.241Z,8.32
2022-11-13T20:01:23.672Z,8.30
2022-11-13T20:03:55.197Z,8.26
2022-11-13T20:06:22.241Z,8.23
2022-11-13T20:08:49.679Z,8.30
2022-11-13T20:11:16.719Z,8.08
2022-11-13T20:13:44.052Z,7.97
2022-11-13T20:16:15.963Z,7.65
2022-11-13T20:18:43.845Z,7.50
2022-11-13T20:21:11.080Z,7.49
2022-11-13T20:23:38.729Z,7.36
2022-11-13T20:26:10.523Z,7.36
2022-11-13T20:28:38.518Z,7.33
2022-11-13T20:31:14.726Z,7.29
2022-11-13T20:33:42.153Z,7.37
2022-11-13T20:36:09.364Z,7.44
2022-11-13T20:38:36.342Z,7.42
2022-11-13T20:41:08.311Z,7.31
2022-11-13T20:43:35.089Z,7.22
2022-11-13T20:46:04.576Z,7.17
2022-11-13T20:48:32.082Z,7.04
2022-11-13T20:51:07.420Z,6.98
2022-11-13T20:53:34.923Z,6.92
2022-11-13T20:56:02.505Z,7.05
2022-11-13T20:58:30.100Z,7.31
2022-11-13T21:01:09.515Z,7.49
2022-11-13T21:03:41.323Z,7.53
2022-11-13T21:06:11.405Z,7.57
2022-11-13T21:08:39.596Z,7.58
2022-11-13T21:11:09.615Z,7.60
2022-11-13T21:13:38.708Z,7.07
2022-11-13T21:16:07.759Z,7.02
2022-11-13T21:18:35.094Z,6.99
2022-11-13T21:21:13.016Z,6.91
2022-11-13T21:23:41.847Z,7.04
2022-11-13T21:26:09.374Z,7.03
2022-11-13T21:28:36.970Z,6.89
2022-11-13T21:31:12.767Z,7.02
2022-11-13T21:33:40.965Z,7.22
2022-11-13T21:36:11.495Z,7.32
2022-11-13T21:38:38.322Z,7.38
2022-11-13T21:41:07.850Z,7.44
2022-11-13T21:43:34.602Z,7.44
2022-11-13T21:46:05.529Z,7.41
2022-11-13T21:48:33.529Z,7.40
2022-11-13T21:51:01.164Z,7.47
2022-11-13T21:53:28.101Z,7.56
2022-11-13T21:55:57.807Z,7.60
2022-11-13T21:58:32.267Z,7.60
2022-11-13T22:01:00.012Z,7.66
2022-11-13T22:03:28.239Z,7.69
2022-11-13T22:06:24.083Z,7.72
2022-11-13T22:09:03.234Z,7.59
2022-11-13T22:11:32.682Z,7.61
2022-11-13T22:14:01.115Z,7.64
2022-11-13T22:16:30.426Z,7.65
2022-11-13T22:18:59.501Z,7.70
2022-11-13T22:21:30.366Z,7.68
2022-11-13T22:23:58.237Z,7.66
2022-11-13T22:26:27.002Z,7.66
2022-11-13T22:28:55.582Z,7.64
2022-11-13T22:31:24.798Z,7.61
2022-11-13T22:33:55.241Z,7.59
2022-11-13T22:36:48.486Z,7.57
2022-11-13T22:39:15.210Z,7.50
2022-11-13T22:41:42.560Z,7.43
2022-11-13T22:44:13.609Z,7.27
2022-11-13T22:46:40.868Z,7.19
2022-11-13T22:49:12.250Z,7.14
2022-11-13T22:51:40.807Z,7.09
2022-11-13T22:54:10.220Z,7.05
2022-11-13T22:56:38.882Z,6.29
2022-11-13T22:59:07.589Z,6.45
2022-11-13T23:01:36.176Z,6.46
2022-11-13T23:04:07.525Z,5.93
2022-11-13T23:06:35.878Z,5.78
2022-11-13T23:09:05.377Z,5.51
2022-11-13T23:11:38.282Z,5.74
2022-11-13T23:14:08.054Z,5.78
2022-11-13T23:16:35.893Z,5.67
2022-11-13T23:19:03.318Z,5.67
2022-11-13T23:21:30.663Z,5.54
2022-11-13T23:23:58.594Z,5.51
2022-11-13T23:26:26.323Z,5.67
2022-11-13T23:28:53.250Z,5.67
2022-11-13T23:31:20.822Z,5.59
2022-11-13T23:33:48.198Z,5.55
2022-11-13T23:36:16.084Z,5.44
2022-11-13T23:38:42.967Z,5.38
2022-11-13T23:41:11.108Z,5.58
2022-11-13T23:44:07.143Z,5.50
2022-11-13T23:46:25.700Z,5.45
2022-11-13T23:48:52.662Z,5.44
2022-11-13T23:51:19.397Z,5.43
2022-11-13T23:53:48.899Z,5.32
2022-11-13T23:56:15.695Z,5.20
2022-11-13T23:58:42.482Z,5.42
